Time;durP1;ratioP1;P1;durP2;ratioP2;P2;SDS_P1;SDS_P2;PMS_P1;PMS_P2;Temp;Humidity;BMP_temperature;BMP_pressure;BME280_temperature;BME280_humidity;BME280_pressure;Samples;Min_cycle;Max_cycle;Signal;HPM_P1;HPM_P2
2022/01/09 00:00:36;;;;;;;;;;;;;;;21.97;45.15;98821.13;2074459;28;20039;-65
2022/01/09 00:01:36;;;;;;;;;;;;;;;21.94;45.05;98822.44;2075050;28;19976;-67
2022/01/09 00:02:37;;;;;;;;;;;;;;;21.94;45.02;98827.03;2072224;28;20020;-65
2022/01/09 00:03:40;;;;;;;;;;;;;;;21.91;45.12;98828.34;2074690;28;19929;-65
2022/01/09 00:04:40;;;;;;;;;;;;;;;21.90;45.12;98826.66;2073012;28;20471;-65
2022/01/09 00:05:41;;;;;;;;;;;;;;;21.89;45.04;98829.63;2073755;28;19929;-65
2022/01/09 00:06:42;;;;;;;;;;;;;;;21.88;45.18;98830.69;2073231;28;19928;-65
2022/01/09 00:07:44;;;;;;;;;;;;;;;21.86;45.12;98839.06;2072644;28;20320;-65
2022/01/09 00:08:44;;;;;;;;;;;;;;;21.86;45.19;98832.81;2073564;28;20277;-65
2022/01/09 00:09:47;;;;;;;;;;;;;;;21.85;45.18;98839.28;2074186;28;20019;-64
2022/01/09 00:10:47;;;;;;;;;;;;;;;21.84;45.12;98862.13;2071001;28;19929;-64
2022/01/09 00:11:49;;;;;;;;;;;;;;;21.82;45.08;98839.78;2073107;28;19925;-65
2022/01/09 00:12:49;;;;;;;;;;;;;;;21.81;45.10;98852.53;2074201;28;19921;-65
2022/01/09 00:13:51;;;;;;;;;;;;;;;21.81;45.30;98857.13;2074944;28;19929;-65
2022/01/09 00:14:52;;;;;;;;;;;;;;;21.80;45.17;98860.94;2073306;28;19951;-65
2022/01/09 00:15:53;;;;;;;;;;;;;;;21.78;45.10;98856.56;2074411;28;19925;-65
2022/01/09 00:16:54;;;;;;;;;;;;;;;21.78;45.13;98859.25;2075242;28;19925;-65
2022/01/09 00:17:55;;;;;;;;;;;;;;;21.76;45.03;98858.66;2075454;28;19925;-65
2022/01/09 00:18:56;;;;;;;;;;;;;;;21.76;45.22;98866.81;2074835;28;19931;-65
2022/01/09 00:19:58;;;;;;;;;;;;;;;21.76;45.14;98863.28;2074347;28;19925;-65
2022/01/09 00:21:05;;;;;;;;;;;;;;;21.74;45.08;98868.94;2072709;28;19929;-64
2022/01/09 00:22:06;;;;;;;;;;;;;;;21.73;45.27;98874.63;2074830;28;19948;-64
2022/01/09 00:23:07;;;;;;;;;;;;;;;21.73;45.20;98877.34;2073968;28;19929;-65
2022/01/09 00:24:08;;;;;;;;;;;;;;;21.72;45.38;98881.13;2073413;28;19925;-65
2022/01/09 00:25:11;;;;;;;;;;;;;;;21.72;45.20;98886.56;2073753;28;19964;-66
2022/01/09 00:26:13;;;;;;;;;;;;;;;21.71;45.29;98880.28;2074761;28;19925;-65
2022/01/09 00:27:14;;;;;;;;;;;;;;;21.67;45.11;98878.25;2071833;28;19925;-65
2022/01/09 00:28:15;;;;;;;;;;;;;;;21.71;45.13;98888.44;2074862;28;21602;-67
2022/01/09 00:29:16;;;;;;;;;;;;;;;21.71;45.24;98893.88;2074459;28;20346;-65
2022/01/09 00:30:18;;;;;;;;;;;;;;;21.70;45.15;98894.09;2072527;28;20507;-65
2022/01/09 00:31:19;;;;;;;;;;;;;;;21.68;45.13;98890.78;2074112;28;19925;-67
2022/01/09 00:32:20;;;;;;;;;;;;;;;21.68;45.06;98901.66;2074756;28;20008;-66
2022/01/09 00:33:21;;;;;;;;;;;;;;;21.66;45.14;98899.19;2073148;28;19992;-65
2022/01/09 00:34:22;;;;;;;;;;;;;;;21.27;45.16;98852.44;2074207;28;20012;-67
2022/01/09 00:35:23;;;;;;;;;;;;;;;21.65;45.17;98910.28;2075495;28;20604;-65
2022/01/09 00:36:24;;;;;;;;;;;;;;;21.65;45.19;98918.44;2074837;28;19998;-67
2022/01/09 00:37:25;;;;;;;;;;;;;;;21.64;45.31;98916.75;2073246;28;19924;-67
2022/01/09 00:38:28;;;;;;;;;;;;;;;21.64;45.42;98917.59;2074625;28;19924;-66
2022/01/09 00:39:28;;;;;;;;;;;;;;;21.64;45.30;98916.75;2074166;28;19926;-67
2022/01/09 00:40:31;;;;;;;;;;;;;;;21.64;45.19;98914.88;2073223;28;19983;-66
2022/01/09 00:41:31;;;;;;;;;;;;;;;21.65;45.17;98921.97;2073049;28;19924;-67
2022/01/09 00:42:33;;;;;;;;;;;;;;;21.65;45.34;98921.97;2072309;28;19924;-67
2022/01/09 00:43:33;;;;;;;;;;;;;;;21.64;45.16;98925.75;2074212;28;20649;-67
2022/01/09 00:44:35;;;;;;;;;;;;;;;21.64;45.12;98920.31;2075120;28;20346;-67
2022/01/09 00:45:35;;;;;;;;;;;;;;;21.65;45.15;98926.59;2072683;28;19932;-67
2022/01/09 00:46:37;;;;;;;;;;;;;;;21.66;45.16;98928.22;2074604;28;20008;-65
2022/01/09 00:47:37;;;;;;;;;;;;;;;21.65;45.15;98929.31;2074930;28;19925;-65
2022/01/09 00:48:38;;;;;;;;;;;;;;;21.63;45.08;98932.25;2075076;28;19929;-65
2022/01/09 00:49:39;;;;;;;;;;;;;;;21.64;45.27;98933.88;2074972;28;19925;-65
2022/01/09 00:50:41;;;;;;;;;;;;;;;21.64;45.21;98928.47;2074789;28;19932;-64
2022/01/09 00:51:41;;;;;;;;;;;;;;;21.62;45.17;98933.28;2073640;28;20024;-66
2022/01/09 00:52:43;;;;;;;;;;;;;;;21.61;45.06;98928.94;2074249;28;19921;-66
2022/01/09 00:53:43;;;;;;;;;;;;;;;21.61;45.22;98931.66;2074187;28;19925;-64
2022/01/09 00:54:45;;;;;;;;;;;;;;;21.60;45.14;98927.25;2073261;28;19925;-65
2022/01/09 00:55:47;;;;;;;;;;;;;;;21.60;45.41;98938.13;2074069;28;20646;-65
2022/01/09 00:56:48;;;;;;;;;;;;;;;21.60;45.11;98934.59;2071684;28;20771;-65
2022/01/09 00:57:48;;;;;;;;;;;;;;;21.59;45.08;98939.22;2074024;28;19928;-65
2022/01/09 00:58:50;;;;;;;;;;;;;;;21.58;45.13;98934.81;2075550;28;19931;-65
2022/01/09 00:59:50;;;;;;;;;;;;;;;21.57;45.31;98934.00;2074318;28;19929;-64
2022/01/09 01:00:52;;;;;;;;;;;;;;;21.57;45.21;98941.31;2071792;28;19957;-64
2022/01/09 01:01:53;;;;;;;;;;;;;;;21.56;45.41;98945.91;2074974;28;20008;-67
2022/01/09 01:02:54;;;;;;;;;;;;;;;21.55;45.27;98949.69;2074491;28;19929;-64
2022/01/09 01:03:55;;;;;;;;;;;;;;;21.54;45.30;98956.19;2075048;28;19936;-64
2022/01/09 01:04:56;;;;;;;;;;;;;;;21.53;45.31;98943.66;2073723;28;19928;-64
2022/01/09 01:05:56;;;;;;;;;;;;;;;21.52;45.08;98961.00;2073474;28;19925;-64
2022/01/09 01:06:58;;;;;;;;;;;;;;;21.52;45.15;98962.91;2074102;28;19968;-65
2022/01/09 01:07:59;;;;;;;;;;;;;;;21.51;45.07;98963.94;2073491;28;19948;-64
2022/01/09 01:08:59;;;;;;;;;;;;;;;21.49;45.22;98958.78;2074535;28;19925;-64
2022/01/09 01:10:01;;;;;;;;;;;;;;;21.49;45.03;98969.66;2073281;28;19965;-65
2022/01/09 01:11:03;;;;;;;;;;;;;;;21.48;45.13;98969.88;2071540;28;19932;-67
2022/01/09 01:12:05;;;;;;;;;;;;;;;21.46;45.06;98972.81;2074311;28;19929;-65
2022/01/09 01:13:05;;;;;;;;;;;;;;;21.46;45.35;98970.09;2072446;28;20517;-64
2022/01/09 01:14:06;;;;;;;;;;;;;;;21.46;45.08;98972.81;2075362;28;19947;-64
2022/01/09 01:15:07;;;;;;;;;;;;;;;21.46;45.27;98972.81;2074557;28;20389;-66
2022/01/09 01:16:09;;;;;;;;;;;;;;;21.46;45.05;98975.53;2073289;28;20636;-67
2022/01/09 01:17:09;;;;;;;;;;;;;;;21.45;45.06;98971.13;2074692;28;20300;-66
2022/01/09 01:18:11;;;;;;;;;;;;;;;21.44;45.27;98985.78;2074569;28;20364;-67
2022/01/09 01:19:11;;;;;;;;;;;;;;;21.43;45.17;98994.94;2075393;28;20488;-67
2022/01/09 01:20:13;;;;;;;;;;;;;;;21.42;45.41;98990.59;2074212;28;20262;-67
2022/01/09 01:21:13;;;;;;;;;;;;;;;21.43;45.34;98999.56;2073874;28;19925;-66
2022/01/09 01:22:15;;;;;;;;;;;;;;;21.43;45.28;99005.00;2075424;28;19925;-66
2022/01/09 01:23:15;;;;;;;;;;;;;;;21.42;45.04;99004.16;2073111;28;19936;-67
2022/01/09 01:24:18;;;;;;;;;;;;;;;21.43;45.34;99002.28;2074534;28;19921;-66
2022/01/09 01:25:19;;;;;;;;;;;;;;;21.44;45.21;99006.66;2075210;28;19992;-66
2022/01/09 01:26:22;;;;;;;;;;;;;;;21.44;45.29;99007.53;2073493;28;19929;-67
2022/01/09 01:27:22;;;;;;;;;;;;;;;21.42;45.15;98997.88;2071921;28;20609;-66
2022/01/09 01:28:23;;;;;;;;;;;;;;;21.41;45.25;99013.38;2072201;28;19947;-66
2022/01/09 01:29:24;;;;;;;;;;;;;;;21.39;45.27;99007.34;2074427;28;20288;-66
2022/01/09 01:30:25;;;;;;;;;;;;;;;21.39;45.07;99015.47;2074191;28;19924;-66
2022/01/09 01:31:25;;;;;;;;;;;;;;;21.37;45.05;99023.03;2074071;28;19929;-66
2022/01/09 01:32:27;;;;;;;;;;;;;;;21.34;45.28;99029.75;2073846;28;19931;-66
2022/01/09 01:33:29;;;;;;;;;;;;;;;21.34;45.16;99029.75;2074380;28;19933;-65
2022/01/09 01:34:29;;;;;;;;;;;;;;;21.28;45.27;99019.78;2074480;28;19929;-65
2022/01/09 01:35:30;;;;;;;;;;;;;;;21.33;45.45;99029.97;2075233;28;20491;-65
2022/01/09 01:36:31;;;;;;;;;;;;;;;21.32;45.24;99033.72;2074580;28;19929;-65
2022/01/09 01:37:32;;;;;;;;;;;;;;;21.31;45.27;99037.53;2075011;28;19964;-66
2022/01/09 01:38:33;;;;;;;;;;;;;;;21.29;45.39;99026.88;2075377;28;19940;-66
2022/01/09 01:39:34;;;;;;;;;;;;;;;21.31;45.45;99038.34;2075805;28;20036;-67
2022/01/09 01:40:35;;;;;;;;;;;;;;;21.31;45.40;99035.63;2075040;28;20495;-67
2022/01/09 01:41:38;;;;;;;;;;;;;;;21.31;45.47;99038.34;2074063;28;19964;-67
2022/01/09 01:42:38;;;;;;;;;;;;;;;21.33;45.40;99046.28;2075743;28;19929;-67
2022/01/09 01:43:39;;;;;;;;;;;;;;;21.33;45.48;99054.41;2073963;28;19931;-67
2022/01/09 01:44:40;;;;;;;;;;;;;;;21.34;45.17;99056.06;2075838;28;20381;-67
2022/01/09 01:45:41;;;;;;;;;;;;;;;21.34;45.11;99058.78;2075923;28;20268;-65
2022/01/09 01:46:42;;;;;;;;;;;;;;;21.34;45.31;99062.34;2075272;28;19929;-67
2022/01/09 01:47:43;;;;;;;;;;;;;;;21.34;45.37;99058.78;2075463;28;20012;-67
2022/01/09 01:48:43;;;;;;;;;;;;;;;21.34;45.36;99053.34;2075387;28;19951;-67
2022/01/09 01:49:45;;;;;;;;;;;;;;;21.34;45.45;99056.91;2075904;28;20019;-66
2022/01/09 01:50:47;;;;;;;;;;;;;;;21.35;45.44;99068.59;2075488;28;20821;-67
2022/01/09 01:51:48;;;;;;;;;;;;;;;21.35;45.24;99069.44;2074705;28;19925;-67
2022/01/09 01:52:51;;;;;;;;;;;;;;;21.35;45.36;99076.75;2076424;28;19929;-67
2022/01/09 01:53:55;;;;;;;;;;;;;;;21.36;45.44;99075.69;2073772;28;19929;-67
2022/01/09 01:54:55;;;;;;;;;;;;;;;21.35;45.20;99083.00;2075944;28;20058;-66
2022/01/09 01:56:00;;;;;;;;;;;;;;;21.35;45.47;99090.34;2075813;28;20091;-67
2022/01/09 01:57:02;;;;;;;;;;;;;;;21.36;45.33;99081.13;2073103;28;23130;-66
2022/01/09 01:58:04;;;;;;;;;;;;;;;21.35;45.40;99093.06;2075236;28;20276;-67
2022/01/09 01:59:05;;;;;;;;;;;;;;;21.35;45.21;99084.91;2076620;28;20561;-67
2022/01/09 02:00:08;;;;;;;;;;;;;;;21.37;45.32;99093.66;2073162;28;19929;-67
2022/01/09 02:01:08;;;;;;;;;;;;;;;21.35;45.28;99082.19;2076131;28;19925;-67
2022/01/09 02:02:10;;;;;;;;;;;;;;;21.36;45.26;99100.13;2074980;28;19964;-67
2022/01/09 02:03:10;;;;;;;;;;;;;;;21.35;45.21;99101.19;2075803;28;19928;-67
2022/01/09 02:04:12;;;;;;;;;;;;;;;21.35;45.37;99098.47;2073999;28;19947;-66
2022/01/09 02:05:12;;;;;;;;;;;;;;;21.35;45.14;99093.06;2075495;28;19929;-66
2022/01/09 02:06:15;;;;;;;;;;;;;;;21.34;44.99;99099.53;2076104;28;19931;-67
2022/01/09 02:07:15;;;;;;;;;;;;;;;21.34;45.24;99102.25;2074996;28;20435;-67
2022/01/09 02:08:17;;;;;;;;;;;;;;;21.35;45.36;99106.63;2074780;28;20269;-66
2022/01/09 02:09:17;;;;;;;;;;;;;;;21.32;45.35;99107.94;2076050;28;20473;-67
2022/01/09 02:10:18;;;;;;;;;;;;;;;21.32;45.28;99110.63;2074282;28;19925;-67
2022/01/09 02:11:19;;;;;;;;;;;;;;;21.32;45.00;99110.63;2075037;28;19928;-66
2022/01/09 02:12:22;;;;;;;;;;;;;;;21.31;45.38;99108.13;2073540;28;19925;-65
2022/01/09 02:13:22;;;;;;;;;;;;;;;21.31;45.39;99111.69;2075643;28;19972;-66
2022/01/09 02:14:24;;;;;;;;;;;;;;;21.31;45.23;99127.97;2075722;28;20411;-65
2022/01/09 02:15:27;;;;;;;;;;;;;;;21.31;45.37;99119.81;2074816;28;19936;-66
2022/01/09 02:16:29;;;;;;;;;;;;;;;21.31;45.26;99121.72;2074333;28;19962;-66
2022/01/09 02:17:29;;;;;;;;;;;;;;;21.32;45.19;99126.09;2075182;28;20032;-66
2022/01/09 02:18:30;;;;;;;;;;;;;;;21.31;45.21;99127.16;2074800;28;19932;-66
2022/01/09 02:19:31;;;;;;;;;;;;;;;21.31;45.23;99132.59;2074288;28;19951;-67
2022/01/09 02:20:34;;;;;;;;;;;;;;;21.31;45.25;99125.25;2075440;28;19960;-67
2022/01/09 02:21:35;;;;;;;;;;;;;;;21.29;45.27;99121.94;2075834;28;20365;-67
2022/01/09 02:22:36;;;;;;;;;;;;;;;21.29;45.06;99129.25;2075522;28;19929;-66
2022/01/09 02:23:39;;;;;;;;;;;;;;;21.29;45.02;99138.25;2075608;28;19921;-67
2022/01/09 02:24:40;;;;;;;;;;;;;;;21.28;45.29;99136.56;2074805;28;19932;-66
2022/01/09 02:25:41;;;;;;;;;;;;;;;;;;2075107;28;19939;-67
2022/01/09 02:26:42;;;;;;;;;;;;;;;21.27;44.93;99140.34;2073884;28;19936;-67
2022/01/09 02:27:43;;;;;;;;;;;;;;;21.27;45.23;99137.63;2075266;28;20344;-67
2022/01/09 02:28:44;;;;;;;;;;;;;;;21.26;45.44;99141.38;2075618;28;19936;-66
2022/01/09 02:29:46;;;;;;;;;;;;;;;21.26;45.29;99149.53;2076089;28;20007;-67
2022/01/09 02:30:46;;;;;;;;;;;;;;;21.26;45.29;99151.44;2075191;28;19956;-67
2022/01/09 02:31:48;;;;;;;;;;;;;;;21.26;45.36;99157.69;2073262;28;19924;-67
2022/01/09 02:32:48;;;;;;;;;;;;;;;21.26;45.26;99151.44;2074249;28;19928;-65
2022/01/09 02:33:50;;;;;;;;;;;;;;;21.26;45.02;99143.28;2075330;28;20452;-66
2022/01/09 02:34:50;;;;;;;;;;;;;;;21.26;45.25;99154.97;2073292;28;20372;-66
2022/01/09 02:35:54;;;;;;;;;;;;;;;21.26;45.19;99154.16;2076732;28;19929;-66
2022/01/09 02:36:54;;;;;;;;;;;;;;;21.25;45.11;99158.75;2074910;28;19936;-67
2022/01/09 02:37:56;;;;;;;;;;;;;;;21.25;45.33;99166.91;2074931;28;20413;-66
2022/01/09 02:38:56;;;;;;;;;;;;;;;21.25;45.11;99155.19;2075241;28;19925;-67
2022/01/09 02:39:57;;;;;;;;;;;;;;;21.24;45.31;99169.84;2073655;28;21227;-67
2022/01/09 02:40:58;;;;;;;;;;;;;;;21.24;45.29;99165.22;2075591;28;20392;-66
2022/01/09 02:41:59;;;;;;;;;;;;;;;21.24;45.17;99177.97;2075375;28;20365;-66
2022/01/09 02:43:00;;;;;;;;;;;;;;;21.24;45.37;99180.69;2071998;28;19932;-67
2022/01/09 02:44:07;;;;;;;;;;;;;;;21.25;45.09;99182.34;2076174;28;20412;-67
2022/01/09 02:45:07;;;;;;;;;;;;;;;21.25;45.21;99190.50;2075602;28;19932;-67
2022/01/09 02:46:15;;;;;;;;;;;;;;;21.25;45.16;99188.63;2075683;28;20059;-66
2022/01/09 02:47:16;;;;;;;;;;;;;;;21.24;44.92;99181.53;2072444;28;19921;-67
2022/01/09 02:48:17;;;;;;;;;;;;;;;21.24;45.01;99186.13;2074898;28;20353;-66
2022/01/09 02:49:18;;;;;;;;;;;;;;;21.22;44.97;99194.50;2076666;28;20440;-67
2022/01/09 02:50:31;;;;;;;;;;;;;;;21.20;45.02;99181.13;2075778;28;20608;-67
2022/01/09 02:51:34;;;;;;;;;;;;;;;21.20;45.21;99197.41;2074068;28;20010;-66
2022/01/09 02:52:47;;;;;;;;;;;;;;;21.19;45.27;99194.91;2075439;28;19925;-66
2022/01/09 02:53:56;;;;;;;;;;;;;;;21.20;44.96;99204.75;2075177;28;19921;-67
2022/01/09 02:55:11;;;;;;;;;;;;;;;21.19;45.28;99200.34;2075527;28;20821;-66
2022/01/09 02:56:12;;;;;;;;;;;;;;;21.17;45.22;99207.88;2074607;28;19999;-66
2022/01/09 02:57:12;;;;;;;;;;;;;;;21.16;45.03;99203.53;2075450;28;20613;-68
2022/01/09 02:58:14;;;;;;;;;;;;;;;21.15;45.07;99205.41;2075179;28;20289;-67
2022/01/09 02:59:15;;;;;;;;;;;;;;;21.15;45.20;99204.56;2073298;28;19952;-67
2022/01/09 03:00:17;;;;;;;;;;;;;;;21.14;44.90;99220.03;2074658;28;19929;-68
2022/01/09 03:01:18;;;;;;;;;;;;;;;21.14;44.88;99211.88;2074690;28;19928;-67
2022/01/09 03:02:23;;;;;;;;;;;;;;;21.13;45.17;99215.63;2072269;28;20373;-67
2022/01/09 03:03:24;;;;;;;;;;;;;;;21.12;45.16;99215.88;2075091;28;19929;-66
2022/01/09 03:04:25;;;;;;;;;;;;;;;21.11;44.88;99223.19;2074431;28;19932;-66
2022/01/09 03:05:27;;;;;;;;;;;;;;;21.11;44.97;99227.78;2075253;28;19925;-66
2022/01/09 03:06:28;;;;;;;;;;;;;;;21.10;45.16;99226.97;2074077;28;19932;-66
2022/01/09 03:07:30;;;;;;;;;;;;;;;21.09;45.16;99227.19;2074489;28;20336;-67
2022/01/09 03:08:31;;;;;;;;;;;;;;;21.08;44.97;99239.06;2075599;28;19931;-66
2022/01/09 03:09:32;;;;;;;;;;;;;;;21.09;44.95;99235.31;2075055;28;20414;-67
2022/01/09 03:10:33;;;;;;;;;;;;;;;21.07;44.86;99238.25;2074750;28;19968;-66
2022/01/09 03:11:36;;;;;;;;;;;;;;;21.07;45.21;99237.44;2075192;28;19929;-67
2022/01/09 03:12:37;;;;;;;;;;;;;;;21.07;45.30;99234.72;2075471;28;19976;-66
2022/01/09 03:13:38;;;;;;;;;;;;;;;21.05;45.02;99237.63;2074289;28;19925;-66
2022/01/09 03:14:39;;;;;;;;;;;;;;;21.04;44.99;99246.84;2073982;28;19932;-67
2022/01/09 03:15:40;;;;;;;;;;;;;;;21.03;44.81;99238.91;2075192;28;20274;-67
2022/01/09 03:16:41;;;;;;;;;;;;;;;21.04;44.84;99244.13;2073019;28;19921;-67
2022/01/09 03:17:43;;;;;;;;;;;;;;;21.04;45.31;99251.44;2073262;28;19969;-67
2022/01/09 03:18:44;;;;;;;;;;;;;;;21.04;44.88;99246.00;2074600;28;19961;-67
2022/01/09 03:19:45;;;;;;;;;;;;;;;21.04;44.89;99249.56;2076224;28;19937;-67
2022/01/09 03:20:46;;;;;;;;;;;;;;;21.04;45.01;99255.00;2075587;28;19931;-67
2022/01/09 03:21:46;;;;;;;;;;;;;;;21.06;44.76;99257.47;2075417;28;19925;-66
2022/01/09 03:22:49;;;;;;;;;;;;;;;21.06;44.74;99265.63;2073435;28;20044;-66
2022/01/09 03:23:50;;;;;;;;;;;;;;;21.07;44.84;99275.44;2075116;28;19929;-67
2022/01/09 03:24:51;;;;;;;;;;;;;;;21.06;45.22;99271.03;2075493;28;20484;-67
2022/01/09 03:25:53;;;;;;;;;;;;;;;21.06;44.91;99282.75;2074886;28;19925;-67
2022/01/09 03:26:53;;;;;;;;;;;;;;;21.06;45.20;99288.19;2073458;28;19932;-67
2022/01/09 03:27:55;;;;;;;;;;;;;;;21.06;45.16;99282.75;2074526;28;20027;-66
2022/01/09 03:28:56;;;;;;;;;;;;;;;21.06;44.99;99285.47;2075116;28;19929;-66
2022/01/09 03:29:58;;;;;;;;;;;;;;;21.07;45.22;99276.25;2075544;28;19929;-67
2022/01/09 03:30:58;;;;;;;;;;;;;;;21.08;45.08;99282.53;2072527;28;19996;-66
2022/01/09 03:31:59;;;;;;;;;;;;;;;21.08;45.27;99272.50;2076331;28;20452;-66
2022/01/09 03:33:01;;;;;;;;;;;;;;;21.09;45.18;99284.19;2071442;28;19985;-66
2022/01/09 03:34:01;;;;;;;;;;;;;;;21.08;45.21;99275.22;2075182;28;19982;-67
2022/01/09 03:35:03;;;;;;;;;;;;;;;21.09;45.33;99282.31;2075253;28;19925;-66
2022/01/09 03:36:03;;;;;;;;;;;;;;;21.10;45.15;99286.69;2075269;28;19929;-67
2022/01/09 03:37:05;;;;;;;;;;;;;;;21.10;45.27;99288.59;2075159;28;20015;-67
2022/01/09 03:38:08;;;;;;;;;;;;;;;21.10;45.19;99294.03;2075587;28;19929;-66
2022/01/09 03:39:08;;;;;;;;;;;;;;;21.10;44.92;99294.84;2074063;28;20589;-66
2022/01/09 03:40:11;;;;;;;;;;;;;;;21.11;45.07;99298.38;2075345;28;19924;-67
2022/01/09 03:41:11;;;;;;;;;;;;;;;21.10;45.25;99294.03;2074550;28;19928;-66
2022/01/09 03:42:13;;;;;;;;;;;;;;;21.10;44.98;99294.03;2073223;28;19924;-67
2022/01/09 03:43:14;;;;;;;;;;;;;;;21.11;44.85;99301.09;2074903;28;19929;-66
2022/01/09 03:44:15;;;;;;;;;;;;;;;21.10;45.10;99296.75;2075047;28;19922;-67
2022/01/09 03:45:16;;;;;;;;;;;;;;;21.10;44.81;99307.59;2075633;28;20369;-66
2022/01/09 03:46:16;;;;;;;;;;;;;;;21.10;44.97;99305.72;2075100;28;19986;-67
2022/01/09 03:47:18;;;;;;;;;;;;;;;21.10;44.89;99305.72;2073413;28;19979;-66
2022/01/09 03:48:18;;;;;;;;;;;;;;;21.10;45.18;99304.88;2074438;28;20051;-67
2022/01/09 03:49:19;;;;;;;;;;;;;;;21.09;44.96;99309.47;2071913;28;20377;-67
2022/01/09 03:50:21;;;;;;;;;;;;;;;21.09;44.96;99311.34;2075634;28;19928;-67
2022/01/09 03:51:24;;;;;;;;;;;;;;;21.08;44.95;99307.81;2074696;28;20391;-67
2022/01/09 03:52:27;;;;;;;;;;;;;;;21.08;44.74;99315.09;2074781;28;20415;-67
2022/01/09 03:53:31;;;;;;;;;;;;;;;21.08;44.97;99307.81;2075275;28;19956;-66
2022/01/09 03:54:32;;;;;;;;;;;;;;;21.08;45.00;99317.81;2074279;28;20020;-67
2022/01/09 03:55:32;;;;;;;;;;;;;;;21.07;44.83;99324.31;2074768;28;19948;-66
2022/01/09 03:56:34;;;;;;;;;;;;;;;21.07;45.16;99321.59;2075883;28;19972;-67
2022/01/09 03:57:34;;;;;;;;;;;;;;;21.06;44.96;99325.34;2075080;28;19920;-65
2022/01/09 03:58:36;;;;;;;;;;;;;;;21.05;44.96;99319.09;2073901;28;19927;-65
2022/01/09 03:59:36;;;;;;;;;;;;;;;21.06;44.96;99318.06;2074547;28;19925;-65
2022/01/09 04:00:38;;;;;;;;;;;;;;;21.05;45.14;99310.94;2073822;28;19928;-65
2022/01/09 04:01:38;;;;;;;;;;;;;;;21.05;44.80;99321.00;2075361;28;19933;-65
2022/01/09 04:02:40;;;;;;;;;;;;;;;21.05;44.87;99321.81;2074307;28;21024;-65
2022/01/09 04:03:40;;;;;;;;;;;;;;;21.04;45.01;99319.31;2071774;28;19929;-65
2022/01/09 04:04:42;;;;;;;;;;;;;;;21.03;44.80;99321.19;2074684;28;20007;-65
2022/01/09 04:05:43;;;;;;;;;;;;;;;21.02;44.86;99330.41;2074446;28;20354;-65
2022/01/09 04:06:46;;;;;;;;;;;;;;;21.02;45.21;99321.41;2075079;28;20251;-65
2022/01/09 04:07:47;;;;;;;;;;;;;;;21.02;44.80;99332.28;2076149;28;19925;-65
2022/01/09 04:08:51;;;;;;;;;;;;;;;21.02;44.86;99326.84;2074749;28;19944;-65
2022/01/09 04:09:53;;;;;;;;;;;;;;;21.00;44.80;99327.03;2072696;28;19925;-65
2022/01/09 04:10:53;;;;;;;;;;;;;;;21.00;45.17;99327.03;2074603;28;19937;-64
2022/01/09 04:12:01;;;;;;;;;;;;;;;21.01;44.80;99326.00;2074880;28;20035;-65
2022/01/09 04:13:03;;;;;;;;;;;;;;;21.00;45.01;99327.03;2073804;28;19983;-65
2022/01/09 04:14:04;;;;;;;;;;;;;;;20.99;44.91;99331.66;2072567;28;19960;-65
2022/01/09 04:15:07;;;;;;;;;;;;;;;20.99;45.08;99331.66;2075265;28;20012;-65
2022/01/09 04:16:07;;;;;;;;;;;;;;;20.99;44.81;99328.13;2074685;28;20289;-64
2022/01/09 04:17:13;;;;;;;;;;;;;;;20.96;44.67;99334.81;2074592;28;19968;-65
2022/01/09 04:18:14;;;;;;;;;;;;;;;20.98;44.75;99342.72;2073498;28;19932;-65
2022/01/09 04:19:15;;;;;;;;;;;;;;;20.95;44.72;99338.56;2073649;28;19936;-65
2022/01/09 04:20:16;;;;;;;;;;;;;;;20.94;45.14;99338.78;2071032;28;19925;-65
2022/01/09 04:21:17;;;;;;;;;;;;;;;20.94;44.50;99342.31;2074904;28;19956;-65
2022/01/09 04:22:17;;;;;;;;;;;;;;;20.94;44.96;99344.22;2075692;28;19936;-65
2022/01/09 04:23:19;;;;;;;;;;;;;;;20.92;44.82;99352.56;2075599;28;20518;-65
2022/01/09 04:24:21;;;;;;;;;;;;;;;20.92;44.90;99346.31;2073229;28;19928;-65
2022/01/09 04:25:23;;;;;;;;;;;;;;;20.91;44.63;99350.91;2072950;28;19932;-65
2022/01/09 04:26:23;;;;;;;;;;;;;;;20.91;44.63;99356.34;2074827;28;19932;-65
2022/01/09 04:27:25;;;;;;;;;;;;;;;20.91;44.94;99352.81;2074706;28;19933;-64
2022/01/09 04:28:26;;;;;;;;;;;;;;;20.90;44.71;99359.25;2075171;28;19932;-65
2022/01/09 04:29:26;;;;;;;;;;;;;;;20.89;44.80;99358.44;2073808;28;19932;-65
2022/01/09 04:30:29;;;;;;;;;;;;;;;20.89;44.72;99358.44;2072574;28;19998;-64
2022/01/09 04:31:29;;;;;;;;;;;;;;;20.88;44.61;99364.91;2075429;28;19929;-65
2022/01/09 04:32:31;;;;;;;;;;;;;;;20.89;44.95;99360.31;2074961;28;19928;-65
2022/01/09 04:33:31;;;;;;;;;;;;;;;20.89;44.67;99354.88;2073228;28;19925;-65
2022/01/09 04:34:33;;;;;;;;;;;;;;;20.89;44.69;99371.16;2071491;28;19925;-65
2022/01/09 04:35:33;;;;;;;;;;;;;;;20.89;44.57;99365.72;2073644;28;19936;-65
2022/01/09 04:36:34;;;;;;;;;;;;;;;20.90;44.87;99370.13;2075094;28;19972;-65
2022/01/09 04:37:36;;;;;;;;;;;;;;;20.88;44.64;99378.47;2074691;28;20011;-65
2022/01/09 04:38:37;;;;;;;;;;;;;;;20.88;44.87;99378.47;2074115;28;20363;-65
2022/01/09 04:39:40;;;;;;;;;;;;;;;20.88;44.73;99375.75;2073603;28;19947;-65
2022/01/09 04:40:42;;;;;;;;;;;;;;;20.88;44.82;99381.19;2073224;28;19968;-65
2022/01/09 04:41:42;;;;;;;;;;;;;;;20.87;44.62;99379.53;2074979;28;20744;-65
2022/01/09 04:42:46;;;;;;;;;;;;;;;20.88;45.03;99381.19;2073753;28;20148;-65
2022/01/09 04:43:48;;;;;;;;;;;;;;;20.89;44.46;99393.72;2074451;28;19929;-65
2022/01/09 04:44:50;;;;;;;;;;;;;;;20.89;45.06;99384.72;2073530;28;21586;-65
2022/01/09 04:45:51;;;;;;;;;;;;;;;20.90;44.49;99384.53;2075587;28;20043;-65
2022/01/09 04:46:57;;;;;;;;;;;;;;;20.91;44.73;99391.63;2075168;28;20410;-65
2022/01/09 04:48:02;;;;;;;;;;;;;;;20.87;44.75;99384.97;2075119;28;19929;-65
2022/01/09 04:49:02;;;;;;;;;;;;;;;20.93;44.84;99394.13;2075577;28;20016;-65
2022/01/09 04:50:04;;;;;;;;;;;;;;;20.93;45.10;99405.00;2070724;28;19936;-65
2022/01/09 04:51:05;;;;;;;;;;;;;;;20.92;44.80;99397.88;2074548;28;20388;-65
2022/01/09 04:52:11;;;;;;;;;;;;;;;20.93;44.51;99405.00;2074684;28;19924;-65
2022/01/09 04:53:11;;;;;;;;;;;;;;;20.93;44.93;99405.00;2074439;28;19928;-66
2022/01/09 04:54:13;;;;;;;;;;;;;;;20.93;44.83;99410.44;2074571;28;19956;-65
2022/01/09 04:55:15;;;;;;;;;;;;;;;20.93;44.63;99415.84;2073769;28;19933;-65
2022/01/09 04:56:16;;;;;;;;;;;;;;;20.92;44.86;99411.47;2074813;28;20386;-65
2022/01/09 04:57:17;;;;;;;;;;;;;;;20.92;44.59;99406.84;2073752;28;19956;-65
2022/01/09 04:58:18;;;;;;;;;;;;;;;20.92;45.12;99406.03;2074638;28;20015;-65
2022/01/09 04:59:19;;;;;;;;;;;;;;;20.93;44.65;99415.84;2075087;28;19925;-65
2022/01/09 05:00:20;;;;;;;;;;;;;;;20.93;44.49;99418.56;2073222;28;20352;-65
2022/01/09 05:01:20;;;;;;;;;;;;;;;20.92;44.66;99414.19;2072398;28;19925;-65
2022/01/09 05:02:22;;;;;;;;;;;;;;;20.91;44.60;99418.78;2074212;28;19936;-65
2022/01/09 05:03:22;;;;;;;;;;;;;;;20.91;44.61;99424.22;2074661;28;19982;-65
2022/01/09 05:04:24;;;;;;;;;;;;;;;20.90;44.65;99424.41;2074333;28;19951;-65
2022/01/09 05:05:25;;;;;;;;;;;;;;;20.91;45.00;99428.81;2072610;28;19929;-64
2022/01/09 05:06:26;;;;;;;;;;;;;;;20.90;44.86;99427.97;2072692;28;20629;-65
2022/01/09 05:07:27;;;;;;;;;;;;;;;20.90;44.80;99433.38;2074992;28;20280;-65
2022/01/09 05:08:29;;;;;;;;;;;;;;;20.89;44.97;99423.59;2074934;28;19925;-65
2022/01/09 05:09:29;;;;;;;;;;;;;;;20.89;44.59;99436.31;2073841;28;20459;-65
2022/01/09 05:10:32;;;;;;;;;;;;;;;20.87;44.86;99422.97;2074425;28;21866;-65
2022/01/09 05:11:32;;;;;;;;;;;;;;;20.89;44.92;99436.31;2075649;28;19931;-65
2022/01/09 05:12:34;;;;;;;;;;;;;;;20.87;44.75;99433.84;2075087;28;19976;-65
2022/01/09 05:13:36;;;;;;;;;;;;;;;20.88;44.64;99438.19;2074717;28;20292;-65
2022/01/09 05:14:36;;;;;;;;;;;;;;;20.88;44.78;99440.09;2075990;28;19968;-65
2022/01/09 05:15:37;;;;;;;;;;;;;;;20.88;44.87;99440.09;2076065;28;19936;-65
2022/01/09 05:16:42;;;;;;;;;;;;;;;20.88;44.80;99443.63;2075216;28;22879;-65
2022/01/09 05:17:44;;;;;;;;;;;;;;;20.88;44.76;99445.50;2076046;28;20257;-65
2022/01/09 05:18:50;;;;;;;;;;;;;;;20.87;44.63;99441.13;2076562;28;19929;-65
2022/01/09 05:19:53;;;;;;;;;;;;;;;20.86;44.67;99443.00;2076235;28;20404;-65
2022/01/09 05:20:53;;;;;;;;;;;;;;;20.86;44.57;99444.91;2072470;28;20018;-65